Pagina principale
METAR-TAF:

METAR-TAF

Aeroporti :

Kahmishli, Siria

latitudine: 37-03N, longitudine: 041-13E, altezza: 455 m

Osservazione

Il bollettino è stato emesso 1 ora e 50 minuti fa, alle 21:00 UTC
Vento 12 kt da nord/nord-ovest
Temperature 31°C
Umidità 18%
Pressione 1003 hPa
Visibilità 10 km o più
Poco nuvoloso ad un'altezza di 2600 ft

METAR: OSKL 162100Z 33012KT 9999 FEW026 31/04 Q1003

Ora: 01:50 (22:50 UTC)


TAF: mancante

Osservazioni e previsioni meteorologiche di più di 4000 aeroporti (messaggi METAR e TAF).

Le stazioni disponibili sono rappresentate dai dischi gialli e rossi sulla carta.

Puntare il mouse per vedere il nome della stazione.

Clicca sopra per visualizzare le osservazioni e previsioni meteorologiche.

Per cambiare la mappa : fare clic sui pulsanti verdi con una croce nera per ingrandire, il pulsante verde con un trattino per diminuire, o sulla freccia verde per le mappe adiacenti.


METAR-TAF: